Terminal Aerodrome Forecast
Issued by NWS Sioux Falls, SD

Home | Current Version | Previous Version | Graphics & Text | Print | Product List | Glossary Off
Versions: 1 2 3 4 5 6 7 8 9 10 11 12 13 14 15 16 17

000
FTUS43 KFSD 191720
TAFFSD
TAF
KFSD 191720Z 1918/2018 06014G20KT P6SM -SHRA OVC035
     FM192000 06013KT P6SM VCSH OVC035
     FM192200 06015KT P6SM OVC035
     FM200000 07013KT P6SM OVC035
     FM200600 05011KT P6SM SHRA OVC025
     FM201200 03010KT 6SM SHRA OVC008=

USA.gov is the U.S. government's official web portal to all federal, state and local government web resources and services.